Time;durP1;ratioP1;P1;durP2;ratioP2;P2;SDS_P1;SDS_P2;PMS_P1;PMS_P2;Temp;Humidity;BMP_temperature;BMP_pressure;BME280_temperature;BME280_humidity;BME280_pressure;Samples;Min_cycle;Max_cycle;Signal;HPM_P1;HPM_P2
2022/01/29 00:00:02;;;;;;;63.63;28.27;;;5.90;99.90;;;;;;5066767;28;20204;-65
2022/01/29 00:02:32;;;;;;;63.17;28.17;;;5.90;99.90;;;;;;5059391;28;20222;-65
2022/01/29 00:05:01;;;;;;;68.00;28.20;;;5.90;99.90;;;;;;5061677;28;20235;-65
2022/01/29 00:07:29;;;;;;;64.30;29.00;;;5.90;99.90;;;;;;5059527;28;20236;-65
2022/01/29 00:10:03;;;;;;;65.10;29.10;;;5.90;99.90;;;;;;5061648;28;20211;-65
2022/01/29 00:12:31;;;;;;;62.97;27.73;;;5.90;99.90;;;;;;5062630;28;20227;-65
2022/01/29 00:15:00;;;;;;;67.70;28.83;;;5.90;99.90;;;;;;5063649;28;20235;-65
2022/01/29 00:17:29;;;;;;;72.00;28.90;;;5.90;99.90;;;;;;5058624;28;20192;-65
2022/01/29 00:19:58;;;;;;;64.23;28.73;;;5.90;99.90;;;;;;5070140;28;20734;-65
2022/01/29 00:22:27;;;;;;;65.23;28.80;;;5.90;99.90;;;;;;5056254;28;20221;-65
2022/01/29 00:24:58;;;;;;;65.67;28.37;;;5.90;99.90;;;;;;5056189;28;20193;-65
2022/01/29 00:27:29;;;;;;;63.97;26.87;;;5.90;99.90;;;;;;5056300;28;20661;-65
2022/01/29 00:30:02;;;;;;;74.10;29.83;;;5.90;99.90;;;;;;5056747;28;20602;-65
2022/01/29 00:32:30;;;;;;;65.50;28.93;;;5.90;99.90;;;;;;5061370;28;20242;-65
2022/01/29 00:35:00;;;;;;;63.60;27.73;;;5.90;99.90;;;;;;5060374;28;20223;-65
2022/01/29 00:37:28;;;;;;;64.97;27.47;;;5.90;99.90;;;;;;5066116;28;20230;-65
2022/01/29 00:39:57;;;;;;;66.07;27.93;;;5.90;99.90;;;;;;5064232;28;20294;-65
2022/01/29 00:42:26;;;;;;;63.23;25.50;;;5.90;99.90;;;;;;5061604;28;20220;-65
2022/01/29 00:44:54;;;;;;;67.23;26.83;;;6.00;99.90;;;;;;5058601;28;20767;-64
2022/01/29 00:47:23;;;;;;;67.73;28.17;;;6.10;99.90;;;;;;5059764;28;20223;-64
2022/01/29 00:49:51;;;;;;;64.70;24.97;;;6.10;99.90;;;;;;5057701;28;20224;-65
2022/01/29 00:52:21;;;;;;;67.60;27.13;;;6.10;99.90;;;;;;5057584;28;20283;-64
2022/01/29 00:54:49;;;;;;;72.73;29.00;;;6.10;99.90;;;;;;5056665;28;20196;-65
2022/01/29 00:57:18;;;;;;;68.33;29.00;;;6.10;99.90;;;;;;5066326;28;20227;-65
2022/01/29 00:59:46;;;;;;;69.50;29.07;;;6.20;99.90;;;;;;5063675;28;20214;-65
2022/01/29 01:02:15;;;;;;;72.70;27.10;;;6.10;99.90;;;;;;5058069;28;20282;-64
2022/01/29 01:04:44;;;;;;;74.10;29.63;;;6.20;99.90;;;;;;5056805;28;20219;-64
2022/01/29 01:07:12;;;;;;;75.10;28.90;;;6.20;99.90;;;;;;5058424;28;20200;-65
2022/01/29 01:09:41;;;;;;;67.73;28.40;;;6.20;99.90;;;;;;5060887;28;20287;-65
2022/01/29 01:12:10;;;;;;;67.47;28.33;;;6.30;99.90;;;;;;5063463;28;20663;-64
2022/01/29 01:14:39;;;;;;;74.23;29.07;;;6.30;99.90;;;;;;5060672;28;20196;-64
2022/01/29 01:17:08;;;;;;;72.33;28.37;;;6.30;99.90;;;;;;5066623;28;20231;-65
2022/01/29 01:19:37;;;;;;;72.53;28.60;;;6.30;99.90;;;;;;5063354;28;20196;-64
2022/01/29 01:22:05;;;;;;;65.77;27.97;;;6.30;99.90;;;;;;5055765;28;20212;-64
2022/01/29 01:24:34;;;;;;;66.03;26.10;;;6.30;99.90;;;;;;5060046;28;20247;-65
2022/01/29 01:27:05;;;;;;;78.13;28.93;;;6.30;99.90;;;;;;5058111;28;20286;-64
2022/01/29 01:29:33;;;;;;;65.87;27.83;;;6.30;99.90;;;;;;5060838;28;20196;-64
2022/01/29 01:32:02;;;;;;;71.47;26.93;;;6.30;99.90;;;;;;5055727;28;20201;-65
2022/01/29 01:34:36;;;;;;;68.57;26.53;;;6.40;99.90;;;;;;5059394;28;20220;-64
2022/01/29 01:37:09;;;;;;;69.07;26.97;;;6.40;99.90;;;;;;5057943;28;20271;-65
2022/01/29 01:39:39;;;;;;;67.83;26.33;;;6.40;99.90;;;;;;5058891;28;20285;-64
2022/01/29 01:42:10;;;;;;;61.47;25.13;;;6.40;99.90;;;;;;5061306;28;20216;-68
2022/01/29 01:44:45;;;;;;;63.67;25.43;;;6.40;99.90;;;;;;5058643;28;20283;-65
2022/01/29 01:47:15;;;;;;;59.10;23.97;;;6.40;99.90;;;;;;5061434;28;20203;-65
2022/01/29 01:49:44;;;;;;;65.00;25.47;;;6.50;99.90;;;;;;5063541;28;20226;-65
2022/01/29 01:52:14;;;;;;;62.83;25.70;;;6.50;99.90;;;;;;5060329;28;20191;-65
2022/01/29 01:54:43;;;;;;;59.90;24.63;;;6.50;99.90;;;;;;5059774;28;20253;-65
2022/01/29 01:57:14;;;;;;;61.17;24.20;;;6.50;99.90;;;;;;5061936;28;20677;-65
2022/01/29 01:59:43;;;;;;;56.80;24.73;;;6.60;99.90;;;;;;5055742;28;20200;-65
2022/01/29 02:02:11;;;;;;;55.47;23.73;;;6.60;99.90;;;;;;5060938;28;20227;-65
2022/01/29 02:04:41;;;;;;;58.93;24.87;;;6.70;99.90;;;;;;5059886;28;20295;-65
2022/01/29 02:07:10;;;;;;;61.97;26.10;;;6.70;99.90;;;;;;5058876;28;20765;-65
2022/01/29 02:09:39;;;;;;;64.10;26.30;;;6.60;99.90;;;;;;5059815;28;20204;-65
2022/01/29 02:12:10;;;;;;;54.50;24.07;;;6.60;99.90;;;;;;5061498;28;20203;-66
2022/01/29 02:14:40;;;;;;;54.50;24.17;;;6.60;99.90;;;;;;5063869;28;20430;-65
2022/01/29 02:17:09;;;;;;;55.70;22.60;;;6.60;99.90;;;;;;5062946;28;20203;-65
2022/01/29 02:19:38;;;;;;;53.10;23.00;;;6.70;99.90;;;;;;5062963;28;20275;-65
2022/01/29 02:22:08;;;;;;;53.17;22.87;;;6.70;99.90;;;;;;5058672;28;20200;-65
2022/01/29 02:24:38;;;;;;;53.77;22.97;;;6.70;99.90;;;;;;5069049;28;20287;-65
2022/01/29 02:27:06;;;;;;;57.83;23.93;;;6.70;99.90;;;;;;5059530;28;20210;-65
2022/01/29 02:29:36;;;;;;;52.00;23.77;;;6.70;99.90;;;;;;5058656;28;20240;-65
2022/01/29 02:32:06;;;;;;;52.67;23.40;;;6.70;99.90;;;;;;5058130;28;20204;-65
2022/01/29 02:34:34;;;;;;;55.53;24.23;;;6.70;99.90;;;;;;5061229;28;20185;-65
2022/01/29 02:37:03;;;;;;;52.97;22.87;;;6.70;99.90;;;;;;5056173;28;20205;-65
2022/01/29 02:39:33;;;;;;;49.50;22.67;;;6.80;99.90;;;;;;5060737;28;20229;-65
2022/01/29 02:42:04;;;;;;;42.93;20.33;;;6.80;99.90;;;;;;5083008;28;20215;-65
2022/01/29 02:44:32;;;;;;;48.93;21.30;;;6.80;99.90;;;;;;5067048;28;20244;-66
2022/01/29 02:47:15;;;;;;;44.80;20.00;;;6.90;99.90;;;;;;5065888;28;20200;-65
2022/01/29 02:49:44;;;;;;;42.57;18.87;;;7.00;99.90;;;;;;5060838;28;20217;-65
2022/01/29 02:52:12;;;;;;;45.10;19.53;;;7.00;99.90;;;;;;5060367;28;20196;-65
2022/01/29 02:54:42;;;;;;;34.20;18.30;;;7.00;99.90;;;;;;5062750;28;20288;-65
2022/01/29 02:57:11;;;;;;;32.80;17.47;;;7.10;99.90;;;;;;5063588;28;20219;-65
2022/01/29 02:59:40;;;;;;;35.10;17.67;;;7.10;99.90;;;;;;5064229;28;20232;-65
2022/01/29 03:02:08;;;;;;;33.40;17.00;;;7.10;99.90;;;;;;5061095;28;20216;-65
2022/01/29 03:04:37;;;;;;;27.20;15.23;;;7.20;99.90;;;;;;5051182;28;20219;-66
2022/01/29 03:07:05;;;;;;;29.97;16.27;;;7.10;99.90;;;;;;5062046;28;20200;-65
2022/01/29 03:09:34;;;;;;;31.27;15.60;;;7.20;99.90;;;;;;5067330;28;20188;-65
2022/01/29 03:12:04;;;;;;;31.13;16.40;;;7.20;99.90;;;;;;5061855;28;20219;-65
2022/01/29 03:14:34;;;;;;;30.90;15.73;;;7.20;99.90;;;;;;5068366;28;20725;-65
2022/01/29 03:17:02;;;;;;;27.27;15.30;;;7.30;99.90;;;;;;5062155;28;20200;-66
2022/01/29 03:19:31;;;;;;;25.37;15.27;;;7.30;99.90;;;;;;5063357;28;20204;-66
2022/01/29 03:22:00;;;;;;;27.13;15.77;;;7.30;99.90;;;;;;5059779;28;20225;-65
2022/01/29 03:24:28;;;;;;;31.63;16.77;;;7.30;99.90;;;;;;5069760;28;20216;-66
2022/01/29 03:26:57;;;;;;;23.77;14.87;;;7.30;99.90;;;;;;5079455;28;20196;-65
2022/01/29 03:29:26;;;;;;;28.63;16.13;;;7.30;99.90;;;;;;5061679;28;20196;-65
2022/01/29 03:31:55;;;;;;;27.57;15.07;;;7.30;99.90;;;;;;5060466;28;20196;-66
2022/01/29 03:34:24;;;;;;;25.23;14.13;;;7.30;99.90;;;;;;5067412;28;20200;-65
2022/01/29 03:36:55;;;;;;;26.33;14.63;;;7.40;99.90;;;;;;5057915;28;20193;-66
2022/01/29 03:39:24;;;;;;;25.17;14.17;;;7.50;99.90;;;;;;5070467;28;20200;-66
2022/01/29 03:41:55;;;;;;;21.10;13.87;;;7.40;99.90;;;;;;5071357;28;20199;-65
2022/01/29 03:44:23;;;;;;;22.90;13.37;;;7.40;99.90;;;;;;5067220;28;20618;-65
2022/01/29 03:46:53;;;;;;;26.90;14.10;;;7.40;99.90;;;;;;5057401;28;20200;-65
2022/01/29 03:49:21;;;;;;;21.17;12.93;;;7.40;99.90;;;;;;5057560;28;20287;-66
2022/01/29 03:51:50;;;;;;;23.23;13.60;;;7.40;99.90;;;;;;5060790;28;20223;-66
2022/01/29 03:54:18;;;;;;;25.03;13.70;;;7.50;99.90;;;;;;5059973;28;20195;-65
2022/01/29 03:56:47;;;;;;;20.80;12.67;;;7.50;99.90;;;;;;5064281;28;20200;-65
2022/01/29 03:59:15;;;;;;;18.37;12.63;;;7.50;99.90;;;;;;5062247;28;20189;-65
2022/01/29 04:01:44;;;;;;;21.17;12.23;;;7.50;99.90;;;;;;5058109;28;20227;-65
2022/01/29 04:04:15;;;;;;;19.33;13.30;;;7.50;99.90;;;;;;5064521;28;20254;-65
2022/01/29 04:06:43;;;;;;;20.50;13.03;;;7.50;99.90;;;;;;5056323;28;20203;-65
2022/01/29 04:09:12;;;;;;;18.67;12.90;;;7.50;99.90;;;;;;5063010;28;20197;-65
2022/01/29 04:11:41;;;;;;;19.97;12.77;;;7.60;99.90;;;;;;5063316;28;20195;-65
2022/01/29 04:14:16;;;;;;;19.10;12.83;;;7.50;99.90;;;;;;5056233;28;20249;-65
2022/01/29 04:16:46;;;;;;;18.60;12.40;;;7.50;99.90;;;;;;5059894;28;20230;-66
2022/01/29 04:19:16;;;;;;;19.20;12.70;;;7.60;99.90;;;;;;5061487;28;20250;-65
2022/01/29 04:21:44;;;;;;;21.47;13.07;;;7.60;99.90;;;;;;5053863;28;20207;-66
2022/01/29 04:24:13;;;;;;;20.93;13.00;;;7.50;99.90;;;;;;5079205;28;20296;-65
2022/01/29 04:26:41;;;;;;;20.47;12.87;;;7.60;99.90;;;;;;5065477;28;20198;-65
2022/01/29 04:29:09;;;;;;;17.67;12.43;;;7.60;99.90;;;;;;5062093;28;20200;-65
2022/01/29 04:31:44;;;;;;;20.87;12.93;;;7.50;99.90;;;;;;5066874;28;20215;-65
2022/01/29 04:34:12;;;;;;;19.73;12.63;;;7.60;99.90;;;;;;5060224;28;20192;-65
2022/01/29 04:36:43;;;;;;;17.47;12.20;;;7.60;99.90;;;;;;5062848;28;20185;-65
2022/01/29 04:39:11;;;;;;;16.97;11.67;;;7.60;99.90;;;;;;5063028;28;20227;-66
2022/01/29 04:41:40;;;;;;;17.60;12.43;;;7.60;99.90;;;;;;5061056;28;20200;-65
2022/01/29 04:44:09;;;;;;;15.27;11.30;;;7.70;99.90;;;;;;5061073;28;20260;-66
2022/01/29 04:46:37;;;;;;;19.23;12.13;;;7.70;99.90;;;;;;5079817;28;20442;-65
2022/01/29 04:49:06;;;;;;;15.97;11.67;;;7.70;99.90;;;;;;5066760;28;20192;-65
2022/01/29 04:51:35;;;;;;;16.60;11.50;;;7.80;99.90;;;;;;5063118;28;20278;-65
2022/01/29 04:54:05;;;;;;;17.10;11.67;;;7.80;99.90;;;;;;5059811;28;20192;-65
2022/01/29 04:56:34;;;;;;;16.63;11.80;;;7.80;99.90;;;;;;5062239;28;20200;-65
2022/01/29 04:59:03;;;;;;;19.07;12.60;;;7.90;99.90;;;;;;5065319;28;20279;-65
2022/01/29 05:01:31;;;;;;;17.17;11.00;;;7.90;99.90;;;;;;5059369;28;20276;-65
2022/01/29 05:04:00;;;;;;;16.47;11.63;;;7.90;99.90;;;;;;5062445;28;20212;-65
2022/01/29 05:06:28;;;;;;;17.33;11.20;;;7.90;99.90;;;;;;5061649;28;20184;-65
2022/01/29 05:08:57;;;;;;;12.90;10.17;;;7.90;99.90;;;;;;5060202;28;20197;-65
2022/01/29 05:11:28;;;;;;;15.20;10.10;;;8.00;99.90;;;;;;5062008;28;20255;-65
2022/01/29 05:13:57;;;;;;;13.30;10.20;;;8.00;99.90;;;;;;5062358;28;20253;-65
2022/01/29 05:16:54;;;;;;;15.17;10.40;;;8.00;99.90;;;;;;5062448;28;20432;-65
2022/01/29 05:27:50;;;;;;;16.03;10.60;;;8.10;99.90;;;;;;5061722;28;20303;-65
2022/01/29 05:30:18;;;;;;;13.40;9.80;;;8.10;99.90;;;;;;5064413;28;20658;-65
2022/01/29 05:32:47;;;;;;;17.07;10.30;;;8.20;99.90;;;;;;5058269;28;20199;-65
2022/01/29 05:35:15;;;;;;;14.73;9.57;;;8.20;99.90;;;;;;5068319;28;20193;-65
2022/01/29 05:37:46;;;;;;;11.87;9.60;;;8.20;99.90;;;;;;5051128;28;20261;-65
2022/01/29 05:40:14;;;;;;;12.83;9.60;;;8.20;99.90;;;;;;5056759;28;20192;-65
2022/01/29 05:42:42;;;;;;;13.00;10.00;;;8.20;99.90;;;;;;5053176;28;20550;-65
2022/01/29 05:45:12;;;;;;;14.23;9.73;;;8.20;99.90;;;;;;5059131;28;20303;-65
2022/01/29 05:47:41;;;;;;;10.90;8.90;;;8.20;99.90;;;;;;5058770;28;20769;-65
2022/01/29 05:50:10;;;;;;;14.33;9.07;;;8.30;99.90;;;;;;5061177;28;20200;-65
2022/01/29 05:52:39;;;;;;;12.40;9.27;;;8.20;99.90;;;;;;5061888;28;20204;-65
2022/01/29 05:55:08;;;;;;;13.37;9.00;;;8.30;99.90;;;;;;5063386;28;20185;-66
2022/01/29 05:57:36;;;;;;;14.83;9.73;;;8.20;99.90;;;;;;5059958;28;20666;-65
2022/01/29 06:00:06;;;;;;;12.70;9.30;;;8.20;99.90;;;;;;5061243;28;20200;-65
2022/01/29 06:02:36;;;;;;;15.40;9.40;;;8.20;99.90;;;;;;5058213;28;20193;-66
2022/01/29 06:05:05;;;;;;;15.80;9.93;;;8.20;99.90;;;;;;5061413;28;20208;-65
2022/01/29 06:07:34;;;;;;;13.30;9.53;;;8.30;99.90;;;;;;5058775;28;20192;-65
2022/01/29 06:10:02;;;;;;;17.03;10.50;;;8.30;99.90;;;;;;5054899;28;20567;-65
2022/01/29 06:12:38;;;;;;;12.87;9.17;;;8.20;99.90;;;;;;5063388;28;20192;-66
2022/01/29 06:15:07;;;;;;;13.67;9.07;;;8.30;99.90;;;;;;5062214;28;20262;-66
2022/01/29 06:17:38;;;;;;;14.00;9.70;;;8.20;99.90;;;;;;5064662;28;20767;-65
2022/01/29 06:20:07;;;;;;;12.00;9.30;;;8.20;99.90;;;;;;5066946;28;20254;-65
2022/01/29 06:22:36;;;;;;;14.90;9.63;;;8.30;99.90;;;;;;5060583;28;20271;-65
2022/01/29 06:25:04;;;;;;;15.27;11.07;;;8.30;99.90;;;;;;5062863;28;20608;-65
2022/01/29 06:27:33;;;;;;;13.30;9.63;;;8.20;99.90;;;;;;5066419;28;20220;-65
2022/01/29 06:30:02;;;;;;;14.07;10.30;;;8.20;99.90;;;;;;5064313;28;20536;-66
2022/01/29 06:32:30;;;;;;;14.53;10.20;;;8.20;99.90;;;;;;5068230;28;20224;-66
2022/01/29 06:35:00;;;;;;;17.40;10.53;;;8.20;99.90;;;;;;5060871;28;20220;-66
2022/01/29 06:37:29;;;;;;;16.23;10.20;;;8.20;99.90;;;;;;5066882;28;20264;-66
2022/01/29 06:39:57;;;;;;;15.97;11.17;;;8.30;99.90;;;;;;5059703;28;20588;-65
2022/01/29 06:42:26;;;;;;;16.87;10.20;;;8.30;99.90;;;;;;5061876;28;20557;-66
2022/01/29 06:44:55;;;;;;;16.00;11.00;;;8.30;99.90;;;;;;5059139;28;20232;-66
2022/01/29 06:47:24;;;;;;;17.50;10.83;;;8.40;99.90;;;;;;5067545;28;20565;-66
2022/01/29 06:49:52;;;;;;;20.07;10.80;;;8.50;99.90;;;;;;5063084;28;20684;-66
2022/01/29 06:52:22;;;;;;;14.43;11.10;;;8.50;99.90;;;;;;5065837;28;20598;-66
2022/01/29 06:54:51;;;;;;;13.63;9.80;;;8.50;99.90;;;;;;5061982;28;20769;-66
2022/01/29 06:57:19;;;;;;;14.37;9.50;;;8.60;99.90;;;;;;5067189;28;20884;-66
2022/01/29 06:59:48;;;;;;;13.73;9.80;;;8.60;99.90;;;;;;5058572;28;20195;-66
2022/01/29 07:02:16;;;;;;;19.17;10.20;;;8.60;99.90;;;;;;5062222;28;20586;-66
2022/01/29 07:04:47;;;;;;;14.93;9.70;;;8.60;99.90;;;;;;5068450;28;20293;-66
2022/01/29 07:07:16;;;;;;;15.13;9.47;;;8.60;99.90;;;;;;5061072;28;20189;-66
2022/01/29 07:09:45;;;;;;;12.90;9.33;;;8.70;99.90;;;;;;5064543;28;20203;-65
2022/01/29 07:12:14;;;;;;;12.87;8.33;;;8.70;99.90;;;;;;5061799;28;20296;-66
2022/01/29 07:14:42;;;;;;;14.43;9.10;;;8.70;99.90;;;;;;5067502;28;20581;-66
2022/01/29 07:17:12;;;;;;;14.63;9.30;;;8.60;99.90;;;;;;5074386;28;20612;-66
2022/01/29 07:19:40;;;;;;;16.07;9.80;;;8.70;99.90;;;;;;5058511;28;20666;-66
2022/01/29 07:22:10;;;;;;;12.77;9.63;;;8.70;99.90;;;;;;5063973;28;20842;-66
2022/01/29 07:24:40;;;;;;;14.13;9.20;;;8.70;99.90;;;;;;5058958;28;20672;-65
2022/01/29 07:27:09;;;;;;;15.53;9.90;;;8.70;99.90;;;;;;5064010;28;20576;-66
2022/01/29 07:29:38;;;;;;;17.20;9.43;;;8.80;99.90;;;;;;5041220;28;20709;-66
2022/01/29 07:32:07;;;;;;;13.47;9.33;;;8.80;99.90;;;;;;5059812;28;20237;-65
2022/01/29 07:34:36;;;;;;;16.43;9.37;;;8.80;99.90;;;;;;5059860;28;20650;-66
2022/01/29 07:37:05;;;;;;;14.97;9.53;;;8.90;99.90;;;;;;5058305;28;20653;-65
2022/01/29 07:39:34;;;;;;;15.33;9.57;;;8.90;99.90;;;;;;5060487;28;20254;-66
2022/01/29 07:42:03;;;;;;;15.50;10.03;;;8.90;99.90;;;;;;5063634;28;20566;-65
2022/01/29 07:44:33;;;;;;;11.93;8.63;;;8.90;99.90;;;;;;5067331;28;20216;-66
2022/01/29 07:47:01;;;;;;;13.63;9.53;;;8.90;99.90;;;;;;5064639;28;20840;-66
2022/01/29 07:49:30;;;;;;;13.40;9.00;;;9.00;99.90;;;;;;5062605;28;20200;-66
2022/01/29 07:51:58;;;;;;;11.40;8.67;;;9.00;99.90;;;;;;5065169;28;20838;-66
2022/01/29 07:54:27;;;;;;;15.90;9.57;;;9.00;99.90;;;;;;5061670;28;20537;-66
2022/01/29 07:56:55;;;;;;;15.47;9.30;;;9.10;99.90;;;;;;5060305;28;20219;-65
2022/01/29 07:59:24;;;;;;;11.67;9.03;;;9.10;99.90;;;;;;5059814;28;20802;-66
2022/01/29 08:01:54;;;;;;;13.03;9.17;;;9.10;99.90;;;;;;5061666;28;20203;-66
2022/01/29 08:04:24;;;;;;;10.77;8.60;;;9.20;99.90;;;;;;5061618;28;20713;-65
2022/01/29 08:06:53;;;;;;;11.77;8.70;;;9.10;99.90;;;;;;5060884;28;20241;-66
2022/01/29 08:09:21;;;;;;;12.60;8.80;;;9.20;99.90;;;;;;5060395;28;20196;-66
2022/01/29 08:11:50;;;;;;;65.70;37.00;;;9.20;99.90;;;;;;5064737;28;20211;-66
2022/01/29 08:14:18;;;;;;;12.80;9.17;;;9.20;99.90;;;;;;5061489;28;20242;-66
2022/01/29 08:16:47;;;;;;;12.80;8.43;;;9.20;99.90;;;;;;5061966;28;20188;-65
2022/01/29 08:19:17;;;;;;;16.40;9.13;;;9.20;99.90;;;;;;5062703;28;20805;-66
2022/01/29 08:21:45;;;;;;;13.77;11.37;;;9.20;99.90;;;;;;5077481;28;20658;-66
2022/01/29 08:24:14;;;;;;;15.80;9.87;;;9.20;99.90;;;;;;5063741;28;20650;-66
2022/01/29 08:26:42;;;;;;;13.07;8.53;;;9.20;99.90;;;;;;5061126;28;20218;-65
2022/01/29 08:29:14;;;;;;;15.63;8.80;;;9.20;99.90;;;;;;5063407;28;20843;-66
2022/01/29 08:31:42;;;;;;;12.63;8.73;;;9.20;99.90;;;;;;5061399;28;20730;-66
2022/01/29 08:34:11;;;;;;;14.13;8.50;;;9.10;99.90;;;;;;5059286;28;20250;-66
2022/01/29 08:36:41;;;;;;;14.33;9.40;;;9.20;99.90;;;;;;5054659;28;20204;-66
2022/01/29 08:39:10;;;;;;;14.13;9.30;;;9.20;99.90;;;;;;5059183;28;20223;-66
2022/01/29 08:41:38;;;;;;;13.17;8.60;;;9.20;99.90;;;;;;5052160;28;21480;-66
2022/01/29 08:44:07;;;;;;;15.20;8.73;;;9.20;99.90;;;;;;5058707;28;20583;-66
2022/01/29 08:46:36;;;;;;;12.73;9.03;;;9.20;99.90;;;;;;5064650;28;20291;-66
2022/01/29 08:49:04;;;;;;;12.10;8.30;;;9.20;99.90;;;;;;5063953;28;20265;-66
2022/01/29 08:51:33;;;;;;;16.50;9.60;;;9.20;99.90;;;;;;5056324;28;20185;-66
2022/01/29 08:54:03;;;;;;;16.30;8.80;;;9.20;99.90;;;;;;5061983;28;20196;-65
2022/01/29 08:56:32;;;;;;;15.20;8.47;;;9.20;99.90;;;;;;5061853;28;20221;-65
2022/01/29 08:59:01;;;;;;;12.07;8.63;;;9.20;99.90;;;;;;5063306;28;20211;-65
2022/01/29 09:01:30;;;;;;;17.30;8.40;;;9.20;99.90;;;;;;5064287;28;20208;-65
2022/01/29 09:04:00;;;;;;;11.10;7.43;;;9.20;99.90;;;;;;5065307;28;20196;-65
2022/01/29 09:06:29;;;;;;;13.77;7.90;;;9.20;99.90;;;;;;5060936;28;20212;-64
2022/01/29 09:08:57;;;;;;;9.90;7.17;;;9.30;99.90;;;;;;5048907;28;20209;-65
2022/01/29 09:11:27;;;;;;;11.47;7.33;;;9.30;99.90;;;;;;5051149;28;20284;-65
2022/01/29 09:13:55;;;;;;;14.33;7.70;;;9.30;99.90;;;;;;5063096;28;20230;-65
2022/01/29 09:16:23;;;;;;;11.13;6.87;;;9.30;99.90;;;;;;5059553;28;20188;-66
2022/01/29 09:18:52;;;;;;;16.77;8.80;;;9.30;99.90;;;;;;5055049;28;20196;-66
2022/01/29 09:21:21;;;;;;;12.93;6.53;;;9.40;99.90;;;;;;5047602;28;20202;-65
2022/01/29 09:23:55;;;;;;;13.37;6.10;;;9.40;99.90;;;;;;5056418;28;20240;-65
2022/01/29 09:26:24;;;;;;;8.17;5.17;;;9.40;99.90;;;;;;5060544;28;20299;-65
2022/01/29 09:28:54;;;;;;;10.00;5.67;;;9.40;99.90;;;;;;5056491;28;20197;-65
2022/01/29 09:31:23;;;;;;;6.07;5.00;;;9.50;99.90;;;;;;5062006;28;20295;-66
2022/01/29 09:33:51;;;;;;;8.60;4.93;;;9.50;99.90;;;;;;5057043;28;20196;-66
2022/01/29 09:36:22;;;;;;;5.87;4.80;;;9.50;99.90;;;;;;5067900;28;20198;-66
2022/01/29 09:38:50;;;;;;;7.93;4.90;;;9.60;99.90;;;;;;5065578;28;20211;-66
2022/01/29 09:41:24;;;;;;;9.97;6.73;;;9.60;99.90;;;;;;5077748;28;20311;-65
2022/01/29 09:43:54;;;;;;;8.97;7.63;;;9.60;99.90;;;;;;5064581;28;20227;-65
2022/01/29 09:46:23;;;;;;;9.60;5.57;;;9.60;99.90;;;;;;5061345;28;20224;-65
2022/01/29 09:48:55;;;;;;;7.33;4.93;;;9.60;99.90;;;;;;5067391;28;20200;-65
2022/01/29 09:51:23;;;;;;;4.23;3.90;;;9.70;99.90;;;;;;5053839;28;20208;-66
2022/01/29 09:53:51;;;;;;;5.67;5.00;;;9.70;99.90;;;;;;5065850;28;20192;-66
2022/01/29 09:56:20;;;;;;;5.57;5.17;;;9.70;99.90;;;;;;5065086;28;20254;-65
2022/01/29 09:58:48;;;;;;;6.17;4.90;;;9.80;99.90;;;;;;5064921;28;20741;-65
2022/01/29 10:01:18;;;;;;;8.00;4.50;;;9.90;99.90;;;;;;5065208;28;20196;-64
2022/01/29 10:04:00;;;;;;;5.37;4.10;;;10.00;99.90;;;;;;5056515;28;20211;-65
2022/01/29 10:06:29;;;;;;;5.83;3.80;;;10.10;99.90;;;;;;5057835;28;20192;-65
2022/01/29 10:08:59;;;;;;;4.37;3.90;;;10.10;99.90;;;;;;5063479;28;20597;-65
2022/01/29 10:11:30;;;;;;;6.73;4.53;;;10.20;99.90;;;;;;5066953;28;20203;-66
2022/01/29 10:14:00;;;;;;;7.23;4.20;;;10.20;99.90;;;;;;5059831;28;20274;-66
2022/01/29 10:16:32;;;;;;;4.30;3.90;;;10.30;99.90;;;;;;5068932;28;20227;-66
2022/01/29 10:19:03;;;;;;;10.37;6.70;;;10.40;99.90;;;;;;5067696;28;20246;-67
2022/01/29 10:21:33;;;;;;;7.23;5.23;;;10.50;99.90;;;;;;5068034;28;20198;-64
2022/01/29 10:24:06;;;;;;;11.30;7.27;;;10.70;99.90;;;;;;5063491;28;20201;-68
2022/01/29 10:26:35;;;;;;;8.67;7.30;;;10.70;99.90;;;;;;5056143;28;20658;-65
2022/01/29 10:29:06;;;;;;;3.90;3.60;;;10.90;99.90;;;;;;5062849;28;20196;-65
2022/01/29 10:31:44;;;;;;;8.97;4.60;;;10.90;99.90;;;;;;5065293;28;20214;-65
2022/01/29 10:34:20;;;;;;;6.20;4.37;;;10.90;99.90;;;;;;5068089;28;20184;-65
2022/01/29 10:37:16;;;;;;;3.50;3.23;;;10.90;99.90;;;;;;5061003;28;20204;-67
2022/01/29 10:39:46;;;;;;;8.87;3.77;;;11.00;99.90;;;;;;5060189;28;20575;-65
2022/01/29 10:42:17;;;;;;;5.77;4.80;;;11.00;99.90;;;;;;5063821;28;20243;-65
2022/01/29 10:44:47;;;;;;;9.30;5.50;;;11.10;99.90;;;;;;5064716;28;20221;-65
2022/01/29 10:47:17;;;;;;;5.73;3.30;;;11.10;99.90;;;;;;5065272;28;20312;-65
2022/01/29 10:49:54;;;;;;;4.67;4.27;;;11.10;99.90;;;;;;5057126;28;20287;-65
2022/01/29 10:52:29;;;;;;;3.27;3.03;;;11.20;99.90;;;;;;5063559;28;20199;-67
2022/01/29 10:55:02;;;;;;;4.23;3.90;;;11.20;99.90;;;;;;5055780;28;20603;-65
2022/01/29 10:57:33;;;;;;;4.67;3.70;;;11.20;99.90;;;;;;5060478;28;20263;-65
2022/01/29 11:00:05;;;;;;;8.23;5.13;;;11.20;99.90;;;;;;5060510;28;20242;-65
2022/01/29 11:02:38;;;;;;;12.00;7.93;;;11.20;99.90;;;;;;5053182;28;20209;-65
2022/01/29 11:05:07;;;;;;;2.70;2.50;;;11.20;99.90;;;;;;5056011;28;20196;-67
2022/01/29 11:07:36;;;;;;;3.83;2.60;;;11.20;99.90;;;;;;5062442;28;20211;-67
2022/01/29 11:10:07;;;;;;;8.43;4.20;;;11.20;99.90;;;;;;5067431;28;20196;-67
2022/01/29 11:12:44;;;;;;;6.53;2.93;;;11.10;99.90;;;;;;5058166;28;20226;-66
2022/01/29 11:15:15;;;;;;;3.67;2.60;;;11.10;99.90;;;;;;5059919;28;20227;-67
2022/01/29 11:17:46;;;;;;;3.67;2.23;;;11.10;99.90;;;;;;5062139;28;20196;-66
2022/01/29 11:20:14;;;;;;;4.27;2.80;;;11.00;99.90;;;;;;5062244;28;20200;-65
2022/01/29 11:22:47;;;;;;;3.67;2.37;;;11.00;99.90;;;;;;5069839;28;20211;-65
2022/01/29 11:25:20;;;;;;;4.53;2.60;;;11.00;99.90;;;;;;5062732;28;20192;-66
2022/01/29 11:28:09;;;;;;;3.83;3.50;;;11.10;99.90;;;;;;5060365;28;20224;-66
2022/01/29 11:30:38;;;;;;;3.33;2.80;;;11.20;99.90;;;;;;5058951;28;20595;-66
2022/01/29 11:33:08;;;;;;;3.50;2.50;;;11.20;99.90;;;;;;5064318;28;20196;-66
2022/01/29 11:35:52;;;;;;;4.30;2.37;;;11.20;99.90;;;;;;5058258;28;20610;-65
2022/01/29 11:38:31;;;;;;;3.23;2.50;;;11.20;99.90;;;;;;5065642;28;20191;-65
2022/01/29 11:41:02;;;;;;;3.27;2.77;;;11.30;99.90;;;;;;5062225;28;20204;-66
2022/01/29 11:43:33;;;;;;;8.70;3.23;;;11.40;99.90;;;;;;5067552;28;20301;-66
2022/01/29 11:46:05;;;;;;;5.20;3.20;;;11.30;99.90;;;;;;5070011;28;20713;-65
2022/01/29 11:48:55;;;;;;;5.07;3.50;;;11.30;99.90;;;;;;5055466;28;20270;-66
2022/01/29 11:51:46;;;;;;;6.47;3.70;;;11.30;99.90;;;;;;5059722;28;20688;-67
2022/01/29 11:54:37;;;;;;;7.77;3.80;;;11.40;99.90;;;;;;5052698;28;20287;-65
2022/01/29 11:57:15;;;;;;;4.27;3.53;;;11.40;99.90;;;;;;5062175;28;20212;-66
2022/01/29 11:59:44;;;;;;;8.60;5.00;;;11.50;99.90;;;;;;5066319;28;20203;-67
2022/01/29 12:02:39;;;;;;;5.40;3.70;;;11.60;99.90;;;;;;5065009;28;20216;-65
2022/01/29 12:05:31;;;;;;;4.83;3.23;;;11.60;99.90;;;;;;5060074;28;20204;-68
2022/01/29 12:08:16;;;;;;;5.93;3.73;;;11.70;99.90;;;;;;5058958;28;20227;-66
2022/01/29 12:10:53;;;;;;;7.27;3.50;;;11.70;99.90;;;;;;5049960;28;20192;-65
2022/01/29 12:13:22;;;;;;;6.13;3.50;;;11.70;99.90;;;;;;5061638;28;20199;-65
2022/01/29 12:15:57;;;;;;;6.03;3.43;;;11.70;99.90;;;;;;5060201;28;20734;-65
2022/01/29 12:18:34;;;;;;;7.07;3.77;;;11.70;99.90;;;;;;5067400;28;20188;-66
2022/01/29 12:21:06;;;;;;;4.73;3.10;;;11.80;99.90;;;;;;5068420;28;20191;-66
2022/01/29 12:23:49;;;;;;;7.83;3.30;;;11.80;99.90;;;;;;5061250;28;20187;-66
2022/01/29 12:26:22;;;;;;;5.20;2.83;;;11.80;99.90;;;;;;5068121;28;20200;-66
2022/01/29 12:28:52;;;;;;;8.07;4.07;;;11.90;99.90;;;;;;5065526;28;20224;-65
2022/01/29 12:31:21;;;;;;;5.50;3.00;;;11.90;99.90;;;;;;5067773;28;20212;-65
2022/01/29 12:33:50;;;;;;;5.33;3.10;;;11.80;99.90;;;;;;5071392;28;20257;-66
2022/01/29 12:36:20;;;;;;;7.20;3.23;;;11.80;99.90;;;;;;5065763;28;20200;-65
2022/01/29 12:38:48;;;;;;;5.87;3.03;;;11.70;99.90;;;;;;5058764;28;20312;-66
2022/01/29 12:41:25;;;;;;;7.20;3.37;;;11.80;99.90;;;;;;5063155;28;20192;-67
2022/01/29 12:44:02;;;;;;;6.30;2.73;;;11.90;99.90;;;;;;5060316;28;20301;-66
2022/01/29 12:46:31;;;;;;;4.03;2.97;;;11.90;99.90;;;;;;5069045;28;20206;-65
2022/01/29 12:49:06;;;;;;;4.17;2.77;;;12.10;99.90;;;;;;5062425;28;20215;-66
2022/01/29 12:51:36;;;;;;;7.67;2.80;;;12.10;99.90;;;;;;5064399;28;20184;-65
2022/01/29 12:54:07;;;;;;;6.30;2.67;;;12.10;99.90;;;;;;5063016;28;20195;-65
2022/01/29 12:56:37;;;;;;;7.33;2.50;;;12.20;99.90;;;;;;5061090;28;20784;-66
2022/01/29 12:59:08;;;;;;;7.43;2.70;;;12.20;99.90;;;;;;5061569;28;20219;-66
2022/01/29 13:01:38;;;;;;;5.43;2.80;;;12.20;99.90;;;;;;5063160;28;20192;-66
2022/01/29 13:04:08;;;;;;;5.50;2.87;;;12.20;99.90;;;;;;5064011;28;20200;-66
2022/01/29 13:06:39;;;;;;;11.87;2.50;;;12.30;99.90;;;;;;5060060;28;20214;-66